Time;durP1;ratioP1;P1;durP2;ratioP2;P2;SDS_P1;SDS_P2;PMS_P1;PMS_P2;Temp;Humidity;BMP_temperature;BMP_pressure;BME280_temperature;BME280_humidity;BME280_pressure;Samples;Min_cycle;Max_cycle;Signal;HPM_P1;HPM_P2
2023/03/11 00:01:59;;;;;;;0.85;0.70;;;2.50;99.90;;;;;;4969967;28;20582;-63
2023/03/11 00:04:31;;;;;;;0.85;0.70;;;2.40;99.90;;;;;;4945390;28;20046;-63
2023/03/11 00:07:08;;;;;;;1.27;1.00;;;2.40;99.90;;;;;;4974837;28;20466;-62
2023/03/11 00:09:39;;;;;;;1.30;0.90;;;2.40;99.90;;;;;;4970104;28;20046;-63
2023/03/11 00:12:11;;;;;;;1.48;0.80;;;2.40;99.90;;;;;;4973258;28;20042;-63
2023/03/11 00:14:43;;;;;;;5.55;1.30;;;2.40;99.90;;;;;;4962818;28;20039;-63
2023/03/11 00:17:15;;;;;;;1.77;1.05;;;2.40;99.90;;;;;;4962251;28;20225;-63
2023/03/11 00:19:46;;;;;;;1.27;0.80;;;2.30;99.90;;;;;;4967213;28;20130;-63
2023/03/11 00:22:18;;;;;;;2.10;1.20;;;2.40;99.90;;;;;;4959367;28;20039;-63
2023/03/11 00:24:50;;;;;;;1.25;1.02;;;2.30;99.90;;;;;;4966818;28;20101;-63
2023/03/11 00:27:22;;;;;;;3.10;1.15;;;2.30;99.90;;;;;;4945851;28;20043;-63
2023/03/11 00:29:54;;;;;;;2.58;0.95;;;2.30;99.90;;;;;;4967047;28;20039;-63
2023/03/11 00:32:26;;;;;;;3.42;2.65;;;2.30;99.90;;;;;;4969134;28;20043;-63
2023/03/11 00:34:57;;;;;;;1.35;0.88;;;2.30;99.90;;;;;;4954482;28;20058;-63
2023/03/11 00:37:24;;;;;;;1.23;1.13;;;2.30;99.90;;;;;;4966594;28;20038;-63
2023/03/11 00:39:58;;;;;;;1.43;0.80;;;2.30;99.90;;;;;;4967443;28;20053;-63
2023/03/11 00:42:30;;;;;;;2.00;1.30;;;2.40;99.90;;;;;;4966979;28;20043;-63
2023/03/11 00:45:02;;;;;;;1.20;0.90;;;2.30;99.90;;;;;;4968912;28;20278;-63
2023/03/11 00:47:28;;;;;;;1.52;0.82;;;2.30;99.90;;;;;;4952838;28;20138;-63
2023/03/11 00:50:00;;;;;;;0.93;0.80;;;2.20;99.90;;;;;;4930815;28;20575;-63
2023/03/11 00:52:32;;;;;;;1.20;0.80;;;2.20;99.90;;;;;;4941161;28;20125;-63
2023/03/11 00:55:05;;;;;;;1.95;0.80;;;2.10;99.90;;;;;;4954966;28;20047;-63
2023/03/11 00:57:38;;;;;;;1.20;0.80;;;2.10;99.90;;;;;;4951189;28;20503;-63
2023/03/11 01:00:18;;;;;;;1.27;0.90;;;2.10;99.90;;;;;;4967344;28;20034;-63
2023/03/11 01:02:52;;;;;;;1.27;0.88;;;2.00;99.90;;;;;;4962441;28;20043;-63
2023/03/11 01:05:27;;;;;;;1.50;0.75;;;2.00;99.90;;;;;;4966278;28;20031;-63
2023/03/11 01:07:54;;;;;;;0.77;0.60;;;2.00;99.90;;;;;;4960990;28;20047;-63
2023/03/11 01:10:28;;;;;;;0.80;0.60;;;1.90;99.90;;;;;;4948236;28;20043;-63
2023/03/11 01:13:00;;;;;;;;;;;1.90;99.90;;;;;;4944500;28;20047;-63
2023/03/11 01:15:36;;;;;;;1.60;0.88;;;1.90;99.90;;;;;;4964356;28;19933;-63
2023/03/11 01:18:04;;;;;;;0.90;0.68;;;1.90;99.90;;;;;;4970070;28;20138;-63
2023/03/11 01:20:37;;;;;;;1.35;0.80;;;1.80;99.90;;;;;;4952524;28;20046;-63
2023/03/11 01:23:05;;;;;;;0.98;0.70;;;1.80;99.90;;;;;;4968957;28;20527;-63
2023/03/11 01:25:37;;;;;;;1.50;0.80;;;1.80;99.90;;;;;;4961428;28;20051;-63
2023/03/11 01:28:09;;;;;;;1.33;0.80;;;1.70;99.90;;;;;;4951985;28;20646;-63
2023/03/11 01:30:42;;;;;;;0.85;0.63;;;1.70;99.90;;;;;;4965046;28;20526;-63
2023/03/11 01:33:17;;;;;;;2.15;0.90;;;1.80;99.90;;;;;;4946848;28;20042;-63
2023/03/11 01:35:49;;;;;;;1.00;0.60;;;1.80;99.90;;;;;;4943525;28;20063;-63
2023/03/11 01:38:21;;;;;;;1.73;1.15;;;1.80;99.90;;;;;;4968442;28;20077;-63
2023/03/11 01:40:53;;;;;;;1.55;0.70;;;1.70;99.90;;;;;;4951695;28;20058;-63
2023/03/11 01:43:41;;;;;;;1.00;0.70;;;1.70;99.90;;;;;;4954743;28;20042;-63
2023/03/11 01:46:26;;;;;;;0.90;0.50;;;1.60;99.90;;;;;;4949665;28;20046;-63
2023/03/11 01:49:00;;;;;;;0.90;0.52;;;1.60;99.90;;;;;;4964646;28;20067;-63
2023/03/11 01:51:43;;;;;;;1.00;0.70;;;1.60;99.90;;;;;;4948421;28;20043;-63
2023/03/11 01:54:15;;;;;;;0.90;0.73;;;1.60;99.90;;;;;;4941865;28;20050;-63
2023/03/11 01:56:49;;;;;;;1.48;1.00;;;1.50;99.90;;;;;;4963162;28;20073;-63
2023/03/11 01:59:30;;;;;;;1.42;0.93;;;1.50;99.90;;;;;;4942735;28;20038;-63
2023/03/11 02:02:24;;;;;;;1.63;0.88;;;1.50;99.90;;;;;;4956242;28;20125;-63
2023/03/11 02:04:52;;;;;;;2.45;1.10;;;1.50;99.90;;;;;;4965811;28;20129;-63
2023/03/11 02:07:22;;;;;;;0.85;0.65;;;1.50;99.90;;;;;;4949763;28;20038;-63
2023/03/11 02:09:51;;;;;;;1.35;1.02;;;1.50;99.90;;;;;;4945456;28;20093;-63
2023/03/11 02:12:27;;;;;;;2.60;1.08;;;1.50;99.90;;;;;;4964277;28;20053;-63
2023/03/11 02:15:00;;;;;;;0.90;0.73;;;1.40;99.90;;;;;;4962685;28;20047;-63
2023/03/11 02:17:36;;;;;;;2.03;1.05;;;1.40;99.90;;;;;;4957765;28;20107;-63
2023/03/11 02:20:28;;;;;;;1.20;0.90;;;1.40;99.90;;;;;;4964714;28;20046;-63
2023/03/11 02:22:56;;;;;;;1.52;0.90;;;1.40;99.90;;;;;;4964510;28;20042;-63
2023/03/11 02:25:33;;;;;;;4.55;1.02;;;1.30;99.90;;;;;;4953097;28;20053;-63
2023/03/11 02:28:08;;;;;;;1.25;0.88;;;1.30;99.90;;;;;;4967020;28;20523;-63
2023/03/11 02:30:42;;;;;;;1.88;1.08;;;1.20;99.90;;;;;;4969412;28;20066;-63
2023/03/11 02:33:17;;;;;;;1.48;0.63;;;1.20;99.90;;;;;;4947402;28;20039;-63
2023/03/11 02:35:45;;;;;;;2.13;0.90;;;1.30;99.90;;;;;;4946671;28;20063;-63
2023/03/11 02:38:17;;;;;;;1.65;1.00;;;1.20;99.90;;;;;;4960431;28;20423;-63
2023/03/11 02:40:56;;;;;;;1.02;0.85;;;1.20;99.90;;;;;;4946394;28;20475;-63
2023/03/11 02:43:38;;;;;;;1.50;0.73;;;1.20;99.90;;;;;;4945412;28;20574;-63
2023/03/11 02:46:13;;;;;;;1.83;0.95;;;1.20;99.90;;;;;;4967337;28;20527;-63
2023/03/11 02:48:47;;;;;;;1.65;0.73;;;1.20;99.90;;;;;;4950468;28;20043;-63
2023/03/11 02:51:19;;;;;;;2.88;1.25;;;1.20;99.90;;;;;;4969441;28;20619;-63
2023/03/11 02:53:55;;;;;;;1.38;0.98;;;1.20;99.90;;;;;;4957011;28;20426;-63
2023/03/11 02:56:28;;;;;;;2.53;0.85;;;1.20;99.90;;;;;;4947268;28;20043;-63
2023/03/11 02:59:00;;;;;;;1.23;0.73;;;1.20;99.90;;;;;;4951897;28;20078;-63
2023/03/11 03:01:32;;;;;;;0.80;0.60;;;1.20;99.90;;;;;;4952042;28;20034;-63
2023/03/11 03:04:04;;;;;;;1.40;0.75;;;1.10;99.90;;;;;;4946658;28;20054;-64
2023/03/11 03:06:36;;;;;;;0.90;0.75;;;1.10;99.90;;;;;;4948594;28;20053;-62
2023/03/11 03:09:08;;;;;;;1.50;1.00;;;1.10;99.90;;;;;;4958576;28;20050;-63
2023/03/11 03:11:39;;;;;;;1.42;1.02;;;1.10;99.90;;;;;;4973400;28;20057;-63
2023/03/11 03:14:11;;;;;;;0.70;0.60;;;1.10;99.90;;;;;;4953766;28;20039;-63
2023/03/11 03:16:43;;;;;;;0.98;0.57;;;1.10;99.90;;;;;;4966874;28;20051;-63
2023/03/11 03:19:17;;;;;;;;;;;1.00;99.90;;;;;;4945890;28;20515;-63
2023/03/11 03:21:44;;;;;;;0.93;0.75;;;1.10;99.90;;;;;;4949911;28;19922;-63
2023/03/11 03:24:17;;;;;;;1.50;0.95;;;1.10;99.90;;;;;;4948551;28;20054;-63
2023/03/11 03:26:48;;;;;;;2.63;0.90;;;1.10;99.90;;;;;;4947306;28;20050;-63
2023/03/11 03:29:20;;;;;;;2.08;1.10;;;1.10;99.90;;;;;;4947310;28;20043;-63
2023/03/11 03:31:53;;;;;;;2.72;0.80;;;1.10;99.90;;;;;;4948352;28;20215;-63
2023/03/11 03:34:25;;;;;;;1.38;1.05;;;1.10;99.90;;;;;;4970430;28;20125;-63
2023/03/11 03:36:57;;;;;;;1.38;1.00;;;1.20;99.90;;;;;;4952419;28;20043;-63
2023/03/11 03:39:31;;;;;;;1.20;0.80;;;1.10;99.90;;;;;;4968834;28;20516;-63
2023/03/11 03:42:03;;;;;;;0.93;0.75;;;1.20;99.90;;;;;;4965496;28;20047;-63
2023/03/11 03:44:38;;;;;;;1.45;1.08;;;1.10;99.90;;;;;;4948615;28;20035;-62
2023/03/11 03:47:10;;;;;;;1.65;1.00;;;1.10;99.90;;;;;;4950341;28;20121;-63
2023/03/11 03:49:43;;;;;;;1.50;1.00;;;1.20;99.90;;;;;;4950424;28;20419;-63
2023/03/11 03:52:14;;;;;;;1.60;0.85;;;1.20;99.90;;;;;;4948880;28;20042;-63
2023/03/11 03:54:46;;;;;;;2.42;0.90;;;1.20;99.90;;;;;;4952960;28;20098;-63
2023/03/11 03:57:18;;;;;;;2.47;1.13;;;1.20;99.90;;;;;;4966431;28;20117;-63
2023/03/11 03:59:51;;;;;;;2.38;1.00;;;1.20;99.90;;;;;;4967605;28;20089;-63
2023/03/11 04:02:23;;;;;;;1.30;1.17;;;1.30;99.90;;;;;;4969263;28;20054;-63
2023/03/11 04:04:55;;;;;;;2.28;1.30;;;1.30;99.90;;;;;;4948801;28;20058;-63
2023/03/11 04:07:27;;;;;;;1.88;1.20;;;1.40;99.90;;;;;;4966518;28;20488;-63
2023/03/11 04:09:59;;;;;;;1.45;1.08;;;1.40;99.90;;;;;;4964281;28;20496;-63
2023/03/11 04:12:32;;;;;;;1.67;1.10;;;1.40;99.90;;;;;;4944419;28;20066;-63
2023/03/11 04:15:06;;;;;;;;;;;1.40;99.90;;;;;;4949604;28;20047;-63
2023/03/11 04:17:39;;;;;;;1.35;1.25;;;1.40;99.90;;;;;;4968923;28;19961;-63
2023/03/11 04:20:12;;;;;;;2.13;1.20;;;1.30;99.90;;;;;;4973183;28;20047;-63
2023/03/11 04:22:47;;;;;;;1.88;1.08;;;1.30;99.90;;;;;;4951558;28;20066;-63
2023/03/11 04:25:22;;;;;;;1.42;1.00;;;1.20;99.90;;;;;;4947434;28;20080;-63
2023/03/11 04:27:54;;;;;;;1.63;1.00;;;1.20;99.90;;;;;;4947712;28;20121;-63
2023/03/11 04:30:27;;;;;;;3.20;1.10;;;1.20;99.90;;;;;;4933663;28;20035;-63
2023/03/11 04:32:55;;;;;;;3.72;1.52;;;1.10;99.90;;;;;;4953865;28;20418;-63
2023/03/11 04:35:23;;;;;;;1.45;1.33;;;1.10;99.90;;;;;;4966118;28;20038;-63
2023/03/11 04:37:56;;;;;;;1.60;1.20;;;1.00;99.90;;;;;;4949560;28;20035;-63
2023/03/11 04:40:27;;;;;;;2.30;0.90;;;1.00;99.90;;;;;;4949254;28;20053;-63
2023/03/11 04:42:59;;;;;;;2.25;1.20;;;1.00;99.90;;;;;;4956018;28;20058;-63
2023/03/11 04:45:32;;;;;;;1.60;1.10;;;0.90;99.90;;;;;;4951761;28;20078;-63
2023/03/11 04:48:04;;;;;;;2.42;1.08;;;0.90;99.90;;;;;;4955959;28;20125;-63
2023/03/11 04:50:37;;;;;;;1.95;1.40;;;0.90;99.90;;;;;;4945867;28;20047;-63
2023/03/11 04:53:10;;;;;;;2.60;1.27;;;0.80;99.90;;;;;;4969347;28;20058;-63
2023/03/11 04:55:41;;;;;;;3.97;2.15;;;0.80;99.90;;;;;;4961337;28;20126;-63
2023/03/11 04:58:13;;;;;;;4.93;1.33;;;0.80;99.90;;;;;;4943247;28;20050;-63
2023/03/11 05:00:46;;;;;;;1.50;1.23;;;0.70;99.90;;;;;;4964371;28;20066;-63
2023/03/11 05:03:19;;;;;;;1.23;0.90;;;0.70;99.90;;;;;;4955983;28;20301;-63
2023/03/11 05:05:55;;;;;;;1.05;0.95;;;0.60;99.90;;;;;;4954461;28;20046;-63
2023/03/11 05:08:23;;;;;;;1.42;1.23;;;0.60;99.90;;;;;;4967761;28;20038;-63
2023/03/11 05:10:55;;;;;;;3.00;1.40;;;0.50;99.90;;;;;;4936503;28;20047;-63
2023/03/11 05:13:28;;;;;;;3.97;1.33;;;0.40;99.90;;;;;;4960544;28;20518;-63
2023/03/11 05:16:00;;;;;;;3.30;1.63;;;0.40;99.90;;;;;;4963910;28;20043;-62
2023/03/11 05:18:33;;;;;;;1.83;1.63;;;0.30;99.90;;;;;;4946099;28;20039;-63
2023/03/11 05:21:05;;;;;;;2.20;1.30;;;0.30;99.90;;;;;;4962771;28;20043;-63
2023/03/11 05:23:37;;;;;;;3.65;1.50;;;0.20;99.90;;;;;;4946508;28;20050;-63
2023/03/11 05:26:10;;;;;;;3.00;1.70;;;0.20;99.90;;;;;;4965796;28;20043;-62
2023/03/11 05:28:43;;;;;;;;;;;0.10;99.90;;;;;;4953467;28;20035;-63
2023/03/11 05:31:15;;;;;;;2.50;1.50;;;0.10;99.90;;;;;;4948030;28;19932;-62
2023/03/11 05:33:42;;;;;;;2.65;1.25;;;0.00;99.90;;;;;;4967148;28;20039;-63
2023/03/11 05:36:14;;;;;;;3.70;1.48;;;0.00;99.90;;;;;;4965040;28;20056;-62
2023/03/11 05:38:46;;;;;;;3.15;1.55;;;0.00;99.90;;;;;;4947776;28;20047;-63
2023/03/11 05:41:19;;;;;;;2.42;1.50;;;0.00;99.90;;;;;;4946803;28;20046;-63
2023/03/11 05:43:51;;;;;;;5.80;2.67;;;0.00;99.90;;;;;;4944029;28;20065;-63
2023/03/11 05:46:23;;;;;;;2.75;1.95;;;0.00;99.90;;;;;;4957314;28;20039;-63
2023/03/11 05:48:55;;;;;;;3.03;1.75;;;0.00;99.90;;;;;;4962974;28;20043;-63
2023/03/11 05:51:27;;;;;;;3.72;1.90;;;0.00;99.90;;;;;;4951988;28;20118;-63
2023/03/11 05:53:55;;;;;;;3.33;1.60;;;0.00;99.90;;;;;;4968602;28;20027;-62
2023/03/11 05:56:36;;;;;;;2.05;1.65;;;-0.10;99.90;;;;;;4950390;28;20504;-62
2023/03/11 05:59:09;;;;;;;4.05;1.88;;;-0.10;99.90;;;;;;4951195;28;20478;-63
2023/03/11 06:01:42;;;;;;;2.25;1.75;;;-0.20;99.90;;;;;;4950875;28;20086;-63
2023/03/11 06:04:14;;;;;;;3.30;1.40;;;-0.20;99.90;;;;;;4946493;28;20045;-63
2023/03/11 06:06:46;;;;;;;5.13;1.27;;;-0.20;99.90;;;;;;4942703;28;20050;-63
2023/03/11 06:09:21;;;;;;;1.95;1.15;;;-0.20;99.90;;;;;;4945247;28;20039;-63
2023/03/11 06:11:53;;;;;;;4.32;1.42;;;-0.20;99.90;;;;;;4949053;28;20118;-63
2023/03/11 06:14:34;;;;;;;3.90;1.83;;;-0.20;99.90;;;;;;4971043;28;20047;-63
2023/03/11 06:17:06;;;;;;;2.42;1.35;;;-0.20;99.90;;;;;;4970246;28;20389;-63
2023/03/11 06:19:37;;;;;;;2.10;1.40;;;-0.20;99.90;;;;;;4953808;28;20034;-63
2023/03/11 06:22:09;;;;;;;4.00;2.63;;;-0.20;99.90;;;;;;4950523;28;20044;-63
2023/03/11 06:24:41;;;;;;;4.20;2.42;;;-0.20;99.90;;;;;;4965067;28;20154;-63
2023/03/11 06:27:13;;;;;;;7.70;2.30;;;-0.20;99.90;;;;;;4960548;28;20039;-66
2023/03/11 06:29:45;;;;;;;2.72;1.88;;;-0.10;99.90;;;;;;4963611;28;20055;-63
2023/03/11 06:32:11;;;;;;;3.22;1.30;;;-0.10;99.90;;;;;;4947694;28;20559;-63
2023/03/11 06:34:44;;;;;;;2.95;1.30;;;-0.10;99.90;;;;;;4945957;28;20037;-63
2023/03/11 06:37:15;;;;;;;1.95;1.20;;;-0.20;99.90;;;;;;4967988;28;20053;-63
2023/03/11 06:39:52;;;;;;;3.70;1.60;;;-0.30;99.90;;;;;;4952458;28;20101;-63
2023/03/11 06:42:25;;;;;;;2.60;1.00;;;-0.20;99.90;;;;;;4968557;28;20047;-63
2023/03/11 06:44:58;;;;;;;4.10;1.20;;;-0.30;99.90;;;;;;4965678;28;20067;-63
2023/03/11 06:47:31;;;;;;;2.88;1.42;;;-0.20;99.90;;;;;;4951405;28;20039;-63
2023/03/11 06:50:06;;;;;;;2.47;1.20;;;-0.20;99.90;;;;;;4954746;28;20054;-63
2023/03/11 06:52:38;;;;;;;1.90;1.10;;;-0.20;99.90;;;;;;4964931;28;20047;-64
2023/03/11 06:55:10;;;;;;;2.15;1.20;;;-0.20;99.90;;;;;;4949747;28;20467;-63
2023/03/11 06:57:44;;;;;;;2.30;1.33;;;-0.10;99.90;;;;;;4975375;28;20734;-64
2023/03/11 07:00:17;;;;;;;1.85;1.33;;;0.00;99.90;;;;;;4961143;28;20458;-62
2023/03/11 07:02:54;;;;;;;3.70;1.40;;;0.00;99.90;;;;;;4971898;28;20066;-63
2023/03/11 07:05:26;;;;;;;1.50;1.33;;;0.10;99.90;;;;;;4954675;28;20043;-64
2023/03/11 07:08:03;;;;;;;1.67;1.10;;;0.10;99.90;;;;;;4973393;28;20889;-63
2023/03/11 07:10:34;;;;;;;3.53;2.00;;;0.10;99.90;;;;;;4973512;28;20130;-63
2023/03/11 07:13:06;;;;;;;3.70;1.23;;;0.10;99.90;;;;;;4971094;28;20047;-64
2023/03/11 07:15:38;;;;;;;4.07;1.10;;;0.00;99.90;;;;;;4965156;28;20101;-65
2023/03/11 07:18:10;;;;;;;3.85;1.40;;;0.10;99.90;;;;;;4964772;28;20038;-64
2023/03/11 07:20:37;;;;;;;6.82;3.05;;;0.10;99.90;;;;;;4971629;28;20131;-63
2023/03/11 07:23:04;;;;;;;2.55;1.90;;;0.20;99.90;;;;;;4964451;28;20044;-63
2023/03/11 07:25:35;;;;;;;2.17;1.08;;;0.20;99.90;;;;;;4967262;28;20050;-63
2023/03/11 07:28:07;;;;;;;4.38;1.38;;;0.30;99.90;;;;;;4966624;28;20083;-63
2023/03/11 07:30:39;;;;;;;5.55;1.45;;;0.30;99.90;;;;;;4960592;28;20051;-63
2023/03/11 07:33:12;;;;;;;2.28;1.40;;;0.30;99.90;;;;;;4968376;28;20045;-63
2023/03/11 07:35:45;;;;;;;6.93;3.67;;;0.40;99.90;;;;;;4964488;28;20042;-63
2023/03/11 07:38:18;;;;;;;4.00;1.63;;;0.50;99.90;;;;;;4955165;28;20035;-63
2023/03/11 07:40:57;;;;;;;5.38;3.15;;;0.50;99.90;;;;;;4970230;28;20042;-63
2023/03/11 07:43:29;;;;;;;1.70;0.90;;;0.60;99.90;;;;;;4953287;28;20039;-63
2023/03/11 07:46:17;;;;;;;1.75;0.98;;;0.60;99.90;;;;;;4957039;28;20113;-63
2023/03/11 07:48:50;;;;;;;1.20;0.80;;;0.60;99.90;;;;;;4968032;28;20043;-63
2023/03/11 07:51:24;;;;;;;1.73;0.87;;;0.70;99.90;;;;;;4973096;28;20093;-63
2023/03/11 07:53:58;;;;;;;1.63;0.85;;;0.80;99.90;;;;;;4974105;28;20051;-63
2023/03/11 07:56:33;;;;;;;1.63;0.60;;;0.90;99.90;;;;;;4972751;28;20043;-63
2023/03/11 07:59:05;;;;;;;1.05;0.75;;;1.00;99.90;;;;;;4976805;28;20063;-64
2023/03/11 08:01:35;;;;;;;3.90;1.40;;;1.00;99.90;;;;;;4974159;28;20054;-62
2023/03/11 08:04:09;;;;;;;3.20;0.85;;;1.00;99.90;;;;;;4978848;28;20046;-62
2023/03/11 08:06:44;;;;;;;1.83;0.70;;;1.10;99.90;;;;;;4977712;28;20054;-62
2023/03/11 08:09:17;;;;;;;1.90;1.00;;;1.00;99.90;;;;;;4977395;28;20049;-62
2023/03/11 08:11:49;;;;;;;2.33;1.85;;;1.00;99.90;;;;;;4963118;28;20043;-63
2023/03/11 08:14:16;;;;;;;2.67;0.85;;;1.10;99.90;;;;;;4976671;28;20057;-63
2023/03/11 08:16:48;;;;;;;2.95;0.80;;;1.10;99.90;;;;;;4954637;28;20038;-65
2023/03/11 08:19:20;;;;;;;3.10;1.27;;;1.20;99.90;;;;;;4971216;28;20039;-63
2023/03/11 08:21:46;;;;;;;2.30;0.90;;;1.30;99.90;;;;;;4968608;28;20049;-63
2023/03/11 08:24:18;;;;;;;3.78;1.38;;;1.40;99.90;;;;;;4966544;28;20035;-63
2023/03/11 08:26:50;;;;;;;7.05;1.73;;;1.40;99.90;;;;;;4947940;28;20042;-62
2023/03/11 08:29:23;;;;;;;6.28;1.30;;;1.50;99.90;;;;;;4970512;28;20066;-62
2023/03/11 08:31:55;;;;;;;3.47;1.40;;;1.50;99.90;;;;;;4972534;28;20046;-62
2023/03/11 08:34:27;;;;;;;7.25;1.70;;;1.40;99.90;;;;;;4951883;28;20047;-62
2023/03/11 08:36:59;;;;;;;2.35;1.10;;;1.40;99.90;;;;;;4971446;28;20065;-62
2023/03/11 08:39:31;;;;;;;2.78;0.90;;;1.40;99.90;;;;;;4964467;28;20027;-62
2023/03/11 08:42:03;;;;;;;8.60;1.08;;;1.40;99.90;;;;;;4955318;28;20047;-62
2023/03/11 08:44:35;;;;;;;3.45;1.05;;;1.40;99.90;;;;;;4966479;28;20408;-62
2023/03/11 08:47:06;;;;;;;4.07;1.20;;;1.30;99.90;;;;;;4963333;28;20038;-62
2023/03/11 08:49:34;;;;;;;1.80;1.10;;;1.40;99.90;;;;;;4966837;28;20046;-62
2023/03/11 08:52:06;;;;;;;2.95;1.33;;;1.40;99.90;;;;;;4968296;28;20042;-62
2023/03/11 08:54:33;;;;;;;3.42;0.85;;;1.50;99.90;;;;;;4969401;28;20610;-63
2023/03/11 08:57:05;;;;;;;2.35;1.00;;;1.70;99.90;;;;;;4968048;28;20034;-62
2023/03/11 08:59:36;;;;;;;4.18;1.52;;;1.80;99.90;;;;;;4965980;28;20046;-63
2023/03/11 09:02:10;;;;;;;4.25;0.98;;;1.90;99.90;;;;;;4954623;28;20174;-63
2023/03/11 09:04:42;;;;;;;2.60;0.80;;;1.90;99.90;;;;;;4966260;28;20031;-62
2023/03/11 09:07:14;;;;;;;1.70;0.88;;;2.00;99.90;;;;;;4968096;28;20041;-62
2023/03/11 09:09:46;;;;;;;3.00;1.13;;;2.10;99.90;;;;;;4966285;28;20412;-62
2023/03/11 09:12:17;;;;;;;2.67;0.73;;;2.30;99.90;;;;;;4966814;28;20043;-63
2023/03/11 09:14:49;;;;;;;6.47;1.42;;;2.30;99.90;;;;;;4951816;28;20043;-62
2023/03/11 09:17:16;;;;;;;3.47;1.23;;;2.30;99.90;;;;;;4970324;28;20418;-62
2023/03/11 09:19:48;;;;;;;2.67;1.10;;;2.20;99.90;;;;;;4952188;28;20048;-62
2023/03/11 09:22:20;;;;;;;2.92;1.23;;;2.10;99.90;;;;;;4968238;28;20047;-63
2023/03/11 09:24:52;;;;;;;2.92;0.88;;;2.10;99.90;;;;;;4965159;28;20093;-62
2023/03/11 09:27:24;;;;;;;1.98;1.08;;;2.10;99.90;;;;;;4966161;28;20415;-63
2023/03/11 09:29:56;;;;;;;3.92;1.33;;;2.10;99.90;;;;;;4968577;28;20503;-63
2023/03/11 09:32:28;;;;;;;4.25;1.70;;;2.20;99.90;;;;;;4964819;28;20066;-63
2023/03/11 09:34:59;;;;;;;2.10;1.00;;;2.30;99.90;;;;;;4967324;28;20095;-62
2023/03/11 09:37:31;;;;;;;2.30;0.85;;;2.20;99.90;;;;;;4967399;28;20042;-62
2023/03/11 09:40:03;;;;;;;6.70;1.00;;;2.20;99.90;;;;;;4953170;28;20054;-63
2023/03/11 09:43:16;;;;;;;2.97;1.27;;;2.10;99.90;;;;;;4951823;28;20054;-62
2023/03/11 09:45:57;;;;;;;3.38;1.48;;;2.10;99.90;;;;;;4963787;28;20529;-63
2023/03/11 09:48:41;;;;;;;1.50;0.90;;;2.20;99.90;;;;;;4961167;28;20039;-62
2023/03/11 09:51:26;;;;;;;4.88;2.13;;;2.20;99.90;;;;;;4968383;28;20035;-62
2023/03/11 09:54:00;;;;;;;6.47;1.40;;;2.10;99.90;;;;;;4963079;28;20408;-62
2023/03/11 09:56:34;;;;;;;7.70;1.23;;;2.20;99.90;;;;;;4952123;28;20571;-62
2023/03/11 09:59:08;;;;;;;2.85;0.98;;;2.40;99.90;;;;;;4948718;28;20440;-62
2023/03/11 10:01:43;;;;;;;8.10;3.97;;;2.50;99.90;;;;;;4973610;28;20534;-62
2023/03/11 10:04:29;;;;;;;5.30;2.03;;;2.60;99.90;;;;;;4963630;28;20081;-62
2023/03/11 10:07:08;;;;;;;2.22;1.30;;;2.70;99.90;;;;;;4968128;28;20058;-62
2023/03/11 10:09:46;;;;;;;3.28;0.90;;;2.60;99.90;;;;;;4944545;28;20054;-62
2023/03/11 10:12:38;;;;;;;2.25;1.20;;;2.50;99.90;;;;;;4959442;28;20066;-62
2023/03/11 10:15:15;;;;;;;3.83;1.50;;;2.50;99.90;;;;;;4965840;28;20039;-62
2023/03/11 10:18:21;;;;;;;2.78;1.10;;;2.50;99.90;;;;;;4940415;28;20090;-62
2023/03/11 10:21:24;;;;;;;3.80;1.60;;;2.50;99.90;;;;;;4963141;28;20049;-62
2023/03/11 10:23:57;;;;;;;1.88;1.10;;;2.40;99.90;;;;;;4969014;28;20491;-62
2023/03/11 10:26:37;;;;;;;2.42;1.10;;;2.50;99.90;;;;;;4950617;28;20058;-62
2023/03/11 10:29:29;;;;;;;2.22;1.10;;;2.50;99.90;;;;;;4967451;28;20105;-62
2023/03/11 10:32:18;;;;;;;4.90;0.90;;;2.60;99.90;;;;;;4967946;28;20094;-62
2023/03/11 10:35:16;;;;;;;2.85;0.95;;;2.70;99.90;;;;;;4961283;28;20501;-62
2023/03/11 10:38:01;;;;;;;1.38;0.88;;;2.90;99.90;;;;;;4963656;28;20042;-62
2023/03/11 10:40:42;;;;;;;2.13;0.70;;;2.90;99.90;;;;;;4955743;28;20531;-62
2023/03/11 10:43:33;;;;;;;1.98;1.00;;;2.90;99.90;;;;;;4962337;28;20049;-62
2023/03/11 10:46:10;;;;;;;1.80;1.15;;;2.90;99.90;;;;;;4965187;28;20053;-63
2023/03/11 10:48:42;;;;;;;6.78;1.40;;;3.00;99.90;;;;;;4970279;28;20047;-63
2023/03/11 10:51:21;;;;;;;3.67;1.33;;;3.00;99.90;;;;;;4948465;28;20042;-63
2023/03/11 10:53:58;;;;;;;3.45;1.30;;;3.10;99.90;;;;;;4965685;28;20040;-62
2023/03/11 10:56:33;;;;;;;3.05;1.10;;;3.10;99.90;;;;;;4961216;28;20039;-62
2023/03/11 10:59:31;;;;;;;1.27;0.80;;;3.00;99.90;;;;;;4966655;28;20047;-62
2023/03/11 11:02:18;;;;;;;3.50;1.20;;;2.80;99.90;;;;;;4962074;28;20063;-62
2023/03/11 11:04:45;;;;;;;2.75;0.95;;;2.80;99.90;;;;;;4961415;28;20419;-62
2023/03/11 11:07:27;;;;;;;2.75;1.17;;;2.90;99.90;;;;;;4943659;28;20043;-62
2023/03/11 11:10:10;;;;;;;1.90;0.98;;;2.90;99.90;;;;;;4972676;28;20045;-62
2023/03/11 11:12:53;;;;;;;2.30;1.00;;;2.90;99.90;;;;;;4969722;28;20419;-62
2023/03/11 11:15:28;;;;;;;3.75;1.20;;;2.80;99.90;;;;;;4968173;28;20039;-62
2023/03/11 11:17:58;;;;;;;3.38;1.33;;;2.80;99.90;;;;;;4969520;28;20049;-62
2023/03/11 11:20:30;;;;;;;2.88;1.20;;;2.80;99.90;;;;;;4963227;28;20051;-62
2023/03/11 11:23:03;;;;;;;2.30;1.23;;;2.70;99.90;;;;;;4954636;28;20054;-62
2023/03/11 11:25:41;;;;;;;2.10;1.00;;;2.80;99.90;;;;;;4961755;28;20035;-62
2023/03/11 11:28:14;;;;;;;9.15;1.77;;;2.80;99.90;;;;;;4965737;28;20061;-62
2023/03/11 11:31:05;;;;;;;1.70;0.90;;;2.90;99.90;;;;;;4946672;28;20097;-62
2023/03/11 11:33:49;;;;;;;4.25;2.05;;;3.00;99.90;;;;;;4973225;28;20035;-62
2023/03/11 11:36:30;;;;;;;7.07;3.33;;;3.00;99.90;;;;;;4953732;28;20085;-62
2023/03/11 11:39:10;;;;;;;1.85;1.42;;;3.30;99.90;;;;;;4972266;28;20043;-62
2023/03/11 11:41:42;;;;;;;4.10;1.33;;;3.60;99.90;;;;;;4963712;28;20050;-62
2023/03/11 11:44:18;;;;;;;3.30;0.90;;;3.70;99.90;;;;;;4965102;28;20402;-62
2023/03/11 11:46:53;;;;;;;3.22;0.98;;;3.80;99.90;;;;;;4950684;28;20616;-62
2023/03/11 11:49:29;;;;;;;1.17;0.90;;;4.00;99.90;;;;;;4964841;28;20053;-62
2023/03/11 11:52:19;;;;;;;2.42;1.15;;;4.30;99.90;;;;;;4967218;28;20039;-62
2023/03/11 11:54:56;;;;;;;9.38;2.78;;;4.40;99.90;;;;;;4952863;28;20106;-62
2023/03/11 11:57:29;;;;;;;2.58;1.35;;;4.40;99.90;;;;;;4974054;28;20070;-62
2023/03/11 12:00:04;;;;;;;4.68;1.10;;;4.50;99.90;;;;;;4954309;28;20065;-62
2023/03/11 12:02:51;;;;;;;1.20;0.80;;;4.50;99.90;;;;;;4969911;28;20039;-62
2023/03/11 12:05:31;;;;;;;2.45;0.95;;;4.30;99.90;;;;;;4963535;28;20066;-62
2023/03/11 12:08:21;;;;;;;1.85;0.80;;;4.20;99.90;;;;;;4967104;28;20066;-62
2023/03/11 12:11:06;;;;;;;2.63;0.88;;;4.10;99.90;;;;;;4966211;28;20039;-63
2023/03/11 12:14:03;;;;;;;1.77;1.10;;;4.10;99.90;;;;;;4965394;28;20039;-62
2023/03/11 12:16:51;;;;;;;0.85;0.80;;;4.30;99.90;;;;;;4950374;28;20034;-62
2023/03/11 12:19:52;;;;;;;6.28;1.40;;;4.30;99.90;;;;;;4974987;28;20046;-62
2023/03/11 12:22:27;;;;;;;8.25;2.20;;;4.40;99.90;;;;;;4966665;28;20089;-62
2023/03/11 12:25:22;;;;;;;1.35;0.90;;;4.40;99.90;;;;;;4969489;28;20047;-62
2023/03/11 12:28:03;;;;;;;1.75;0.80;;;4.50;99.90;;;;;;4964566;28;20102;-62
2023/03/11 12:30:42;;;;;;;1.52;0.70;;;4.50;99.90;;;;;;4963957;28;20516;-62
2023/03/11 12:33:35;;;;;;;1.90;0.90;;;4.50;99.90;;;;;;4965591;28;20085;-63
2023/03/11 12:36:24;;;;;;;1.43;1.20;;;4.60;99.90;;;;;;4960918;28;20039;-62
2023/03/11 12:38:57;;;;;;;2.03;0.88;;;4.70;99.90;;;;;;4952490;28;20097;-62
2023/03/11 12:41:35;;;;;;;4.13;1.00;;;4.60;99.90;;;;;;4951842;28;20043;-62
2023/03/11 12:44:27;;;;;;;2.72;0.88;;;4.60;99.90;;;;;;4941596;28;20880;-63
2023/03/11 12:46:57;;;;;;;2.45;1.35;;;4.70;99.90;;;;;;4953050;28;20062;-62
2023/03/11 12:49:53;;;;;;;2.88;1.02;;;4.80;99.90;;;;;;4968358;28;20043;-63
2023/03/11 12:52:27;;;;;;;2.33;0.90;;;4.80;99.90;;;;;;4949799;28;20042;-63
2023/03/11 12:54:59;;;;;;;3.00;1.10;;;4.90;99.90;;;;;;4951846;28;20027;-62
2023/03/11 12:57:54;;;;;;;1.75;1.23;;;5.00;99.90;;;;;;4958971;28;20427;-63
2023/03/11 13:00:57;;;;;;;2.20;1.10;;;5.00;99.90;;;;;;4968706;28;20530;-63
2023/03/11 13:03:30;;;;;;;3.28;1.17;;;5.20;99.90;;;;;;4975158;28;20054;-63
2023/03/11 13:06:37;;;;;;;1.10;0.85;;;5.20;99.90;;;;;;4982630;28;20047;-63
2023/03/11 13:09:16;;;;;;;1.75;1.25;;;5.10;99.90;;;;;;4979606;28;20031;-63
2023/03/11 13:11:48;;;;;;;4.28;1.92;;;5.10;99.90;;;;;;4959153;28;20415;-63
2023/03/11 13:14:31;;;;;;;3.15;1.30;;;5.30;99.90;;;;;;4970192;28;20034;-63
2023/03/11 13:17:30;;;;;;;1.60;1.08;;;5.50;99.90;;;;;;4979257;28;20062;-63
2023/03/11 13:19:58;;;;;;;4.20;1.58;;;5.60;99.90;;;;;;4971361;28;20084;-63
2023/03/11 13:22:57;;;;;;;1.58;1.10;;;5.50;99.90;;;;;;4965740;28;20054;-63
2023/03/11 13:25:40;;;;;;;3.38;1.65;;;5.70;99.90;;;;;;4956996;28;20050;-63
2023/03/11 13:28:26;;;;;;;1.63;1.30;;;5.80;99.90;;;;;;4983731;28;20059;-63
2023/03/11 13:31:18;;;;;;;2.80;1.45;;;5.60;99.90;;;;;;4974358;28;20043;-63
2023/03/11 13:34:13;;;;;;;2.05;1.17;;;5.60;99.90;;;;;;4967272;28;20043;-63
2023/03/11 13:36:45;;;;;;;3.75;1.30;;;5.40;99.90;;;;;;4963488;28;20046;-63
2023/03/11 13:39:36;;;;;;;1.38;1.15;;;5.30;99.90;;;;;;4965361;28;20097;-63
2023/03/11 13:42:36;;;;;;;4.20;2.35;;;5.40;99.90;;;;;;4964219;28;20038;-63